WetterOnline ( http://www.wetteronline.de )

Wetter aktuell Lage

Aktuelles Wetter: Bad Lippspringe (158m)

6-stündlich | Neueste Meldungen
Ortszeit Temperatur Wetter
Fr, 20.07. 20:00 28.9° C wolkig
Fr, 20.07. 14:00 27.6° C leicht bewölkt
Fr, 20.07. 8:00 20.3° C wolkig
Fr, 20.07. 2:00 19.3° C leicht bewölkt
Do, 19.07. 20:00 24.6° C leicht bewölkt
Do, 19.07. 14:00 24.3° C leicht bewölkt
Do, 19.07. 8:00 16.1° C wolkenlos
Do, 19.07. 2:00 15.6° C fast wolkenlos
Ortszeit Temperatur Wetter
Sa, 21.07. 1:30 23.2° C bedeckt
Sa, 21.07. 1:20 23.2° C bedeckt
Sa, 21.07. 1:10 23.2° C bedeckt
Sa, 21.07. 1:00 23.1° C bedeckt
Sa, 21.07. 0:50 23.1° C bedeckt
Sa, 21.07. 0:40 22.9° C bewölkt
Sa, 21.07. 0:30 22.2° C wolkig
Sa, 21.07. 0:00 22.0° C wolkig
Fr, 20.07. 23:30 21.8° C wolkig
Fr, 20.07. 23:00 20.9° C wolkig
Fr, 20.07. 22:30 21.7° C bewölkt
Ortszeit Relative Feuchte Sichtweite
Fr, 20.07. 20:00 28% 45 km
Fr, 20.07. 14:00 31% 19 km
Fr, 20.07. 8:00 49% 55 km
Fr, 20.07. 2:00 51% 50 km
Do, 19.07. 20:00 36% 60 km
Do, 19.07. 14:00 33% 18 km
Do, 19.07. 8:00 66% 23 km
Do, 19.07. 2:00 63% 40 km
Ortszeit Relative Feuchte Sichtweite
Sa, 21.07. 1:30 42% 30 km
Sa, 21.07. 1:20 42% -
Sa, 21.07. 1:10 42% -
Sa, 21.07. 1:00 42% 30 km
Sa, 21.07. 0:50 42% -
Sa, 21.07. 0:40 43% -
Sa, 21.07. 0:30 45% 30 km
Sa, 21.07. 0:00 46% 30 km
Fr, 20.07. 23:30 46% 30 km
Fr, 20.07. 23:00 51% 35 km
Fr, 20.07. 22:30 50% 45 km
Ortszeit Niederschlagsmenge Niederschlagsart
Fr, 20.07. 20:00 0.0 l/m2 in 12 Std. -
Fr, 20.07. 14:00 0.0 l/m2 in 6 Std. -
Fr, 20.07. 8:00 0.0 l/m2 in 12 Std. -
Fr, 20.07. 2:00 0.0 l/m2 in 6 Std. -
Do, 19.07. 20:00 0.0 l/m2 in 12 Std. -
Do, 19.07. 14:00 0.0 l/m2 in 6 Std. -
Do, 19.07. 8:00 0.0 l/m2 in 12 Std. -
Do, 19.07. 2:00 0.0 l/m2 in 6 Std. -
Ortszeit Niederschlagsmenge Niederschlagsart
Sa, 21.07. 1:30 0.0 l/m2 in 1 Std. -
Sa, 21.07. 1:20 keine Meldung -
Sa, 21.07. 1:10 keine Meldung -
Sa, 21.07. 1:00 0.0 l/m2 in 1 Std. -
Sa, 21.07. 0:50 keine Meldung -
Sa, 21.07. 0:40 keine Meldung -
Sa, 21.07. 0:30 0.0 l/m2 in 1 Std. -
Sa, 21.07. 0:00 0.0 l/m2 in 1 Std. -
Fr, 20.07. 23:30 0.0 l/m2 in 1 Std. -
Fr, 20.07. 23:00 0.0 l/m2 in 1 Std. -
Fr, 20.07. 22:30 0.0 l/m2 in 1 Std. -
Ortszeit Stärke Spitze Richtung
km/h Bft. km/h Grad Sektor
Fr, 20.07. 20:00 4 1 18 120° SO
Fr, 20.07. 14:00 7 2 18 160° S
Fr, 20.07. 8:00 7 2 29 140° SO
Fr, 20.07. 2:00 13 3 22 100° O
Do, 19.07. 20:00 6 1 28 10° N
Do, 19.07. 14:00 11 2 18 30° NO
Do, 19.07. 8:00 0 0 7 - -
Do, 19.07. 2:00 6 1 17 360° N
Ortszeit Stärke Spitze Richtung
km/h Bft. km/h Grad Sektor
Sa, 21.07. 1:30 20 4 30 100° O
Sa, 21.07. 1:20 20 4 - 100° O
Sa, 21.07. 1:10 20 4 - 100° O
Sa, 21.07. 1:00 19 3 26 90° O
Sa, 21.07. 0:50 19 3 - 90° O
Sa, 21.07. 0:40 18 3 - 90° O
Sa, 21.07. 0:30 17 3 22 90° O
Sa, 21.07. 0:00 17 3 24 90° O
Fr, 20.07. 23:30 13 3 19 80° O
Fr, 20.07. 23:00 4 1 11 20° N
Fr, 20.07. 22:30 4 1 7 20° N
Ortszeit Untergrenze Bedeckung Gattung
total tief tief mittel hoch
Fr, 20.07. 20:00 2700 m 7/8 7/8 - - -
Fr, 20.07. 14:00 8400 m 7/8 0/8 - - -
Fr, 20.07. 8:00 2100 m 6/8 6/8 - - -
Fr, 20.07. 2:00 3300 m 2/8 2/8 - - -
Do, 19.07. 20:00 10500 m 4/8 0/8 - - -
Do, 19.07. 14:00 1800 m 4/8 - - - -
Do, 19.07. 8:00 - 0/8 0/8 - - -
Do, 19.07. 2:00 3300 m 1/8 2/8 - - -
Ortszeit Bedeckungsgrad in Achtel und Wolkenuntergrenze
Sa, 21.07. 1:30 8(3000m)
Sa, 21.07. 1:20 8(3000m)
Sa, 21.07. 1:10 8(3000m)
Sa, 21.07. 1:00 8(3000m)
Sa, 21.07. 0:50 8(3000m)
Sa, 21.07. 0:40 7(3000m) 8(7800m) 8(9000m)
Sa, 21.07. 0:30 4(3000m) 7(7800m) 7(9000m)
Sa, 21.07. 0:00 8(9000m) 7(9000m) 7(10500m)
Fr, 20.07. 23:30 1(2700m) 7(9000m) 8(9000m)
Fr, 20.07. 23:00 2(2700m) 8(6900m) 8(7500m)
Fr, 20.07. 22:30 7(2700m) 8(6900m) 8(7800m)
Ortszeit Luftdruck NN (hPa) Tendenz (hPa in 3 Std.)
Fr, 20.07. 20:00 1010 - 1,3
Fr, 20.07. 14:00 1013 - 0,9
Fr, 20.07. 8:00 1015 - 0,8
Fr, 20.07. 2:00 1016 - 0,3
Do, 19.07. 20:00 1016 - 0,8
Do, 19.07. 14:00 1018 - 0,9
Do, 19.07. 8:00 1020 + 0,2
Do, 19.07. 2:00 1019 + 0,4
Ortszeit Luftdruck NN (hPa) Tendenz (hPa in 3 Std.)
Sa, 21.07. 1:30 1010 - 0,4
Sa, 21.07. 1:20 1010 keine Meldung
Sa, 21.07. 1:10 1010 keine Meldung
Sa, 21.07. 1:00 1010 - 0,2
Sa, 21.07. 0:50 1010 keine Meldung
Sa, 21.07. 0:40 1010 keine Meldung
Sa, 21.07. 0:30 1010 + 0,1
Sa, 21.07. 0:00 1010 0,0
Fr, 20.07. 23:30 1010 + 0,3
Fr, 20.07. 23:00 1011 + 0,3
Fr, 20.07. 22:30 1011 + 0,1
Ortszeit Schneehöhe (cm)
Fr, 20.07. 20:00 -
Fr, 20.07. 14:00 -
Fr, 20.07. 8:00 -
Fr, 20.07. 2:00 -
Do, 19.07. 20:00 -
Do, 19.07. 14:00 -
Do, 19.07. 8:00 -
Do, 19.07. 2:00 -
Ortszeit Schneehöhe (cm)
Sa, 21.07. 1:30 -
Sa, 21.07. 1:20 -
Sa, 21.07. 1:10 -
Sa, 21.07. 1:00 -
Sa, 21.07. 0:50 -
Sa, 21.07. 0:40 -
Sa, 21.07. 0:30 -
Sa, 21.07. 0:00 -
Fr, 20.07. 23:30 -
Fr, 20.07. 23:00 -
Fr, 20.07. 22:30 -
Link zu dieser Seite / Seite empfehlen

Das Wetter in ...